Tecumseh, Oklahoma
Current Conditions -  °F | °C
As of 3:58 PM on Tuesday 21 Oct 2014 (Local Time) from KTIK Reporting Station
Few Clouds Few Clouds  
Wind Chill: 81°   Ceiling: Unl
Heat Index: 81°   Visibility: 10mi
Dew Point: 58°   Wind: 7mph
Humidity: 46%   Direction: 170°S
Pressure: 30.03"   Gusts: NA
Location:  35.26°N, 96.94°W
Report Text: KTIK 212058Z AUTO 17006KT 10SM FEW075 27/15 A3003 RMK AO2 SLP166 T02710147 57018 $
Loading
Personal Weather Stations






























Interactive Weather Map
Tropical Storm Tracking
New forecast layout! Learn more

10-Day Weather Forecast

Advertisements
Track Severe Weather on mobile